createdAt,value
2018-09-30T00:00:20.239Z,92296.23
2018-09-30T00:02:56.031Z,92300.47
2018-09-30T00:05:31.904Z,92300.71
2018-09-30T00:08:07.767Z,92296.89
2018-09-30T00:10:43.758Z,92293.19
2018-09-30T00:13:19.557Z,92304.25
2018-09-30T00:15:55.420Z,92301.48
2018-09-30T00:18:31.624Z,92304.48
2018-09-30T00:21:07.981Z,92307.57
2018-09-30T00:25:52.237Z,92304.56
2018-09-30T00:28:28.212Z,92296.91
2018-09-30T00:31:04.568Z,92296.73
2018-09-30T00:33:45.392Z,92304.90
2018-09-30T00:36:21.419Z,92299.73
2018-09-30T00:38:57.596Z,92303.42
2018-09-30T00:41:33.397Z,92299.54
2018-09-30T00:44:09.279Z,92303.23
2018-09-30T00:46:45.481Z,92300.91
2018-09-30T00:49:21.291Z,92305.00
2018-09-30T00:51:57.234Z,92300.05
2018-09-30T00:54:33.293Z,92304.36
2018-09-30T00:57:09.227Z,92312.44
2018-09-30T00:59:45.184Z,92304.65
2018-09-30T01:02:21.070Z,92305.61
2018-09-30T01:04:56.943Z,92306.14
2018-09-30T01:07:33.216Z,92304.58
2018-09-30T01:10:09.201Z,92312.30
2018-09-30T01:12:47.574Z,92309.60
2018-09-30T01:15:23.436Z,92305.58
2018-09-30T01:17:59.328Z,92306.47
2018-09-30T01:20:35.243Z,92303.78
2018-09-30T01:23:11.028Z,92305.58
2018-09-30T01:25:46.907Z,92299.30
2018-09-30T01:28:22.568Z,92307.80
2018-09-30T01:30:58.429Z,92310.52
2018-09-30T01:33:34.752Z,92307.92
2018-09-30T01:36:10.580Z,92311.22
2018-09-30T01:38:46.855Z,92319.93
2018-09-30T01:41:22.734Z,92318.18
2018-09-30T01:43:59.101Z,92314.93
2018-09-30T01:46:35.132Z,92315.31
2018-09-30T01:49:11.100Z,92320.22
2018-09-30T01:51:56.644Z,92320.67
2018-09-30T01:54:32.561Z,92324.48
2018-09-30T01:57:08.599Z,92320.77
2018-09-30T01:59:44.405Z,92320.47
2018-09-30T02:02:20.341Z,92324.67
2018-09-30T02:04:56.118Z,92322.20
2018-09-30T02:07:32.036Z,92320.73
2018-09-30T02:10:07.851Z,92324.26
2018-09-30T02:12:43.739Z,92321.48
2018-09-30T02:15:19.589Z,92329.03
2018-09-30T02:17:55.408Z,92328.30
2018-09-30T02:20:31.167Z,92333.20
2018-09-30T02:23:07.063Z,92333.28
2018-09-30T02:25:45.458Z,92329.72
2018-09-30T02:28:22.096Z,92328.88
2018-09-30T02:30:58.592Z,92330.52
2018-09-30T02:33:34.701Z,92330.83
2018-09-30T02:36:10.647Z,92325.47
2018-09-30T02:38:46.536Z,92322.61
2018-09-30T02:41:22.476Z,92320.78
2018-09-30T02:43:58.791Z,92322.05
2018-09-30T02:46:34.725Z,92331.27
2018-09-30T02:49:10.723Z,92331.27
2018-09-30T02:51:46.658Z,92328.09
2018-09-30T02:54:22.533Z,92331.02
2018-09-30T02:56:58.332Z,92329.34
2018-09-30T02:59:34.307Z,92325.60
2018-09-30T03:02:10.225Z,92331.63
2018-09-30T03:04:46.106Z,92335.58
2018-09-30T03:07:27.007Z,92334.09
2018-09-30T03:10:02.860Z,92334.90
2018-09-30T03:12:38.676Z,92339.41
2018-09-30T03:15:14.560Z,92345.66
2018-09-30T03:17:50.378Z,92345.34
2018-09-30T03:20:26.197Z,92352.85
2018-09-30T03:23:02.012Z,92356.30
2018-09-30T03:25:37.924Z,92347.59
2018-09-30T03:28:13.720Z,92348.15
2018-09-30T03:30:50.248Z,92349.97
2018-09-30T03:33:26.182Z,92351.63
2018-09-30T03:36:02.115Z,92346.59
2018-09-30T03:38:38.032Z,92352.97
2018-09-30T03:41:14.080Z,92349.81
2018-09-30T03:43:50.548Z,92348.41
2018-09-30T03:46:26.873Z,92357.17
2018-09-30T03:49:02.670Z,92352.18
2018-09-30T03:51:38.660Z,92356.63
2018-09-30T03:54:14.460Z,92351.72
2018-09-30T03:56:50.449Z,92360.48
2018-09-30T03:59:26.308Z,92359.85
2018-09-30T04:02:02.247Z,92358.67
2018-09-30T04:04:38.184Z,92361.05
2018-09-30T04:07:14.057Z,92366.05
2018-09-30T04:09:49.914Z,92362.32
2018-09-30T04:12:26.093Z,92365.97
2018-09-30T04:15:01.937Z,92361.77
2018-09-30T04:17:37.813Z,92357.60
2018-09-30T04:20:13.620Z,92360.45
2018-09-30T04:22:49.524Z,92367.73
2018-09-30T04:25:25.467Z,92374.11
2018-09-30T04:28:01.356Z,92378.47
2018-09-30T04:30:37.176Z,92381.05
2018-09-30T04:33:13.178Z,92386.97
2018-09-30T04:35:49.177Z,92383.88
2018-09-30T04:38:25.125Z,92374.01
2018-09-30T04:41:01.021Z,92385.19
2018-09-30T04:43:37.672Z,92384.92
2018-09-30T04:46:13.447Z,92383.50
2018-09-30T04:48:49.373Z,92387.77
2018-09-30T04:51:25.333Z,92387.53
2018-09-30T04:54:01.177Z,92390.81
2018-09-30T04:56:36.973Z,92393.06
2018-09-30T04:59:13.256Z,92398.20
2018-09-30T05:01:49.164Z,92398.05
2018-09-30T05:04:25.186Z,92393.84
2018-09-30T05:07:01.043Z,92394.70
2018-09-30T05:09:36.910Z,92400.88
2018-09-30T05:12:12.697Z,92397.41
2018-09-30T05:14:49.209Z,92407.10
2018-09-30T05:17:25.027Z,92408.92
2018-09-30T05:20:13.038Z,92412.92
2018-09-30T05:22:49.240Z,92415.03
2018-09-30T05:25:25.198Z,92413.36
2018-09-30T05:28:01.063Z,92415.03
2018-09-30T05:30:36.917Z,92414.16
2018-09-30T05:33:12.747Z,92415.42
2018-09-30T05:35:48.631Z,92420.17
2018-09-30T05:38:24.680Z,92415.25
2018-09-30T05:41:00.676Z,92425.70
2018-09-30T05:43:36.531Z,92424.34
2018-09-30T05:46:12.516Z,92428.80
2018-09-30T05:48:48.325Z,92433.61
2018-09-30T05:51:24.232Z,92436.17
2018-09-30T05:54:00.014Z,92441.17
2018-09-30T05:56:36.020Z,92447.53
2018-09-30T05:59:11.911Z,92444.59
2018-09-30T06:01:47.749Z,92451.38
2018-09-30T06:04:23.550Z,92452.98
2018-09-30T06:06:59.573Z,92455.03
2018-09-30T06:09:35.589Z,92453.12
2018-09-30T06:12:11.756Z,92456.22
2018-09-30T06:14:47.761Z,92451.62
2018-09-30T06:17:23.633Z,92452.97
2018-09-30T06:21:27.368Z,92456.77
2018-09-30T06:24:03.315Z,92466.34
2018-09-30T06:26:40.302Z,92463.80
2018-09-30T06:29:16.242Z,92469.74
2018-09-30T06:31:52.258Z,92469.66
2018-09-30T06:34:28.349Z,92470.59
2018-09-30T06:37:04.223Z,92470.78
2018-09-30T06:39:40.169Z,92481.15
2018-09-30T06:42:16.149Z,92480.38
2018-09-30T06:44:52.005Z,92472.90
2018-09-30T06:47:28.156Z,92477.38
2018-09-30T06:50:04.206Z,92480.64
2018-09-30T06:52:40.047Z,92481.16
2018-09-30T06:55:15.991Z,92479.99
2018-09-30T06:57:51.779Z,92479.00
2018-09-30T07:00:27.732Z,92474.62
2018-09-30T07:03:03.555Z,92479.95
2018-09-30T07:05:39.377Z,92480.07
2018-09-30T07:08:15.457Z,92478.45
2018-09-30T07:10:51.466Z,92476.34
2018-09-30T07:13:27.546Z,92476.86
2018-09-30T07:16:03.399Z,92476.45
2018-09-30T07:18:39.213Z,92482.14
2018-09-30T07:21:15.063Z,92477.18
2018-09-30T07:23:51.329Z,92479.00
2018-09-30T07:33:47.438Z,92488.03
2018-09-30T07:36:23.508Z,92487.88
2018-09-30T07:38:59.360Z,92488.64
2018-09-30T07:41:35.182Z,92490.61
2018-09-30T07:44:11.562Z,92493.04
2018-09-30T07:46:47.405Z,92487.02
2018-09-30T07:49:23.405Z,92487.80
2018-09-30T07:51:59.245Z,92495.36
2018-09-30T07:54:35.087Z,92500.75
2018-09-30T07:57:10.893Z,92501.91
2018-09-30T07:59:47.358Z,92498.56
2018-09-30T08:02:23.276Z,92498.20
2018-09-30T08:04:59.105Z,92501.62
2018-09-30T08:07:34.980Z,92505.67
2018-09-30T08:10:10.836Z,92502.20
2018-09-30T08:12:46.643Z,92504.73
2018-09-30T08:15:22.605Z,92502.77
2018-09-30T08:17:58.417Z,92501.41
2018-09-30T08:20:35.092Z,92493.41
2018-09-30T08:23:10.943Z,92494.50
2018-09-30T08:25:47.385Z,92494.75
2018-09-30T08:28:23.358Z,92489.95
2018-09-30T08:30:59.397Z,92490.55
2018-09-30T08:33:35.062Z,92493.16
2018-09-30T08:36:11.474Z,92491.48
2018-09-30T08:38:47.289Z,92489.20
2018-09-30T08:41:23.198Z,92498.36
2018-09-30T08:43:59.140Z,92491.63
2018-09-30T08:46:35.530Z,92491.36
2018-09-30T08:49:11.458Z,92486.16
2018-09-30T08:51:47.348Z,92484.53
2018-09-30T08:54:23.121Z,92495.82
2018-09-30T08:56:58.949Z,92493.69
2018-09-30T08:59:34.861Z,92490.78
2018-09-30T09:02:10.772Z,92491.33
2018-09-30T09:04:46.630Z,92490.78
2018-09-30T09:07:22.528Z,92488.22
2018-09-30T09:09:58.389Z,92488.02
2018-09-30T09:12:34.554Z,92493.23
2018-09-30T09:15:10.284Z,92487.20
2018-09-30T09:17:46.404Z,92479.66
2018-09-30T09:20:22.468Z,92476.24
2018-09-30T09:22:58.323Z,92480.95
2018-09-30T09:25:34.244Z,92476.22
2018-09-30T09:28:10.533Z,92481.34
2018-09-30T09:30:46.516Z,92481.08
2018-09-30T09:33:22.456Z,92479.30
2018-09-30T09:35:58.409Z,92486.02
2018-09-30T09:38:34.354Z,92481.86
2018-09-30T09:41:10.516Z,92482.94
2018-09-30T09:43:46.368Z,92481.35
2018-09-30T09:46:22.209Z,92482.94
2018-09-30T09:48:58.187Z,92475.44
2018-09-30T09:51:34.423Z,92479.05
2018-09-30T09:54:10.416Z,92481.66
2018-09-30T09:56:46.159Z,92489.62
2018-09-30T09:59:22.129Z,92483.56
2018-09-30T10:01:58.247Z,92489.24
2018-09-30T10:04:35.124Z,92492.16
2018-09-30T10:07:11.023Z,92486.24
2018-09-30T10:09:46.951Z,92490.70
2018-09-30T10:12:23.140Z,92483.47
2018-09-30T10:14:58.961Z,92485.04
2018-09-30T10:17:34.805Z,92481.41
2018-09-30T10:20:11.099Z,92481.92
2018-09-30T10:22:47.038Z,92478.37
2018-09-30T10:25:22.913Z,92481.98
2018-09-30T10:27:58.704Z,92474.52
2018-09-30T10:30:34.623Z,92475.16
2018-09-30T10:33:10.583Z,92473.31
2018-09-30T10:35:46.494Z,92466.86
2018-09-30T10:38:22.828Z,92465.80
2018-09-30T10:40:58.852Z,92461.11
2018-09-30T10:43:34.685Z,92458.89
2018-09-30T10:46:10.654Z,92452.08
2018-09-30T10:48:46.604Z,92455.78
2018-09-30T10:51:22.587Z,92459.34
2018-09-30T10:53:58.621Z,92453.79
2018-09-30T10:56:34.483Z,92454.23
2018-09-30T10:59:10.287Z,92449.74
2018-09-30T11:01:46.361Z,92447.83
2018-09-30T11:04:22.124Z,92444.78
2018-09-30T11:06:58.193Z,92442.58
2018-09-30T11:09:34.214Z,92438.78
2018-09-30T11:12:10.137Z,92436.47
2018-09-30T11:14:46.038Z,92437.46
2018-09-30T11:17:21.981Z,92436.25
2018-09-30T11:19:57.960Z,92433.20
2018-09-30T11:22:33.949Z,92433.27
2018-09-30T11:25:09.921Z,92433.48
2018-09-30T11:27:45.836Z,92425.59
2018-09-30T11:30:22.000Z,92425.03
2018-09-30T11:32:57.894Z,92426.02
2018-09-30T11:35:33.960Z,92428.08
2018-09-30T11:38:10.059Z,92425.09
2018-09-30T11:40:46.078Z,92429.62
2018-09-30T11:43:21.933Z,92430.48
2018-09-30T11:45:57.717Z,92433.25
2018-09-30T11:48:33.628Z,92429.22
2018-09-30T11:51:09.512Z,92414.66
2018-09-30T11:53:48.256Z,92413.80
2018-09-30T11:56:24.101Z,92413.88
2018-09-30T11:59:00.268Z,92420.27
2018-09-30T12:01:36.097Z,92417.78
2018-09-30T12:04:12.099Z,92417.81
2018-09-30T12:06:47.939Z,92410.78
2018-09-30T12:09:23.892Z,92410.43
2018-09-30T12:11:59.802Z,92414.02
2018-09-30T12:14:31.561Z,92412.44
2018-09-30T12:17:02.413Z,92412.38
2018-09-30T12:19:33.297Z,92407.84
2018-09-30T12:22:04.155Z,92406.06
2018-09-30T12:24:35.240Z,92413.02
2018-09-30T12:27:06.536Z,92407.55
2018-09-30T12:29:37.627Z,92402.37
2018-09-30T12:32:08.544Z,92400.59
2018-09-30T12:34:39.451Z,92400.16
2018-09-30T12:37:10.489Z,92402.36
2018-09-30T12:39:41.450Z,92399.23
2018-09-30T12:42:12.297Z,92398.95
2018-09-30T12:44:43.197Z,92400.59
2018-09-30T12:47:14.048Z,92396.47
2018-09-30T12:49:44.929Z,92398.81
2018-09-30T12:52:15.803Z,92399.95
2018-09-30T12:54:46.862Z,92395.48
2018-09-30T12:57:17.706Z,92398.11
2018-09-30T12:59:48.567Z,92395.83
2018-09-30T13:02:19.391Z,92391.06
2018-09-30T13:04:50.267Z,92386.73
2018-09-30T13:07:23.836Z,92385.97
2018-09-30T13:09:55.019Z,92389.07
2018-09-30T13:12:25.852Z,92386.95
2018-09-30T13:14:57.168Z,92385.17
2018-09-30T13:17:28.374Z,92382.76
2018-09-30T13:19:59.297Z,92379.98
2018-09-30T13:22:30.131Z,92373.89
2018-09-30T13:25:01.089Z,92371.47
2018-09-30T13:27:31.933Z,92366.70
2018-09-30T13:30:02.833Z,92370.75
2018-09-30T13:32:33.665Z,92375.94
2018-09-30T13:35:04.564Z,92370.76
2018-09-30T13:37:35.399Z,92367.14
2018-09-30T13:40:06.488Z,92368.70
2018-09-30T13:42:37.962Z,92367.49
2018-09-30T13:45:09.331Z,92370.62
2018-09-30T13:47:40.180Z,92363.30
2018-09-30T13:50:11.119Z,92365.36
2018-09-30T13:52:42.040Z,92366.14
2018-09-30T13:55:13.104Z,92369.13
2018-09-30T13:57:44.551Z,92370.83
2018-09-30T14:00:15.573Z,92367.70
2018-09-30T14:02:46.418Z,92367.84
2018-09-30T14:05:17.381Z,92368.13
2018-09-30T14:07:48.224Z,92370.97
2018-09-30T14:10:19.646Z,92367.14
2018-09-30T14:12:50.483Z,92374.31
2018-09-30T14:15:21.366Z,92372.96
2018-09-30T14:17:52.290Z,92374.30
2018-09-30T14:20:23.193Z,92378.45
2018-09-30T14:22:54.044Z,92378.23
2018-09-30T14:25:24.981Z,92372.30
2018-09-30T14:27:55.861Z,92374.38
2018-09-30T14:30:26.770Z,92373.73
2018-09-30T14:32:57.681Z,92371.32
2018-09-30T14:35:28.577Z,92376.02
2018-09-30T14:37:59.414Z,92368.27
2018-09-30T14:40:30.385Z,92365.36
2018-09-30T14:43:01.223Z,92369.91
2018-09-30T14:45:32.513Z,92373.74
2018-09-30T14:48:03.364Z,92373.81
2018-09-30T14:50:34.386Z,92375.23
2018-09-30T14:53:05.260Z,92371.89
2018-09-30T14:55:36.702Z,92378.36
2018-09-30T14:58:07.661Z,92375.02
2018-09-30T15:00:38.660Z,92370.55
2018-09-30T15:03:09.501Z,92369.41
2018-09-30T15:05:40.425Z,92368.58
2018-09-30T15:08:11.331Z,92371.05
2018-09-30T15:10:42.323Z,92367.77
2018-09-30T15:13:13.217Z,92370.69
2018-09-30T15:15:44.101Z,92376.01
2018-09-30T15:18:14.964Z,92361.83
2018-09-30T15:20:45.869Z,92374.16
2018-09-30T15:23:16.716Z,92375.73
2018-09-30T15:25:47.663Z,92371.91
2018-09-30T15:28:18.500Z,92369.54
2018-09-30T15:30:49.546Z,92368.81
2018-09-30T15:33:20.443Z,92369.11
2018-09-30T15:35:52.328Z,92369.48
2018-09-30T15:38:23.154Z,92381.62
2018-09-30T15:40:54.093Z,92378.48
2018-09-30T15:43:24.957Z,92373.81
2018-09-30T15:45:55.851Z,92376.22
2018-09-30T15:48:27.282Z,92375.22
2018-09-30T15:50:58.163Z,92375.99
2018-09-30T15:53:29.054Z,92376.21
2018-09-30T15:56:00.168Z,92372.14
2018-09-30T15:58:31.040Z,92367.19
2018-09-30T16:01:01.968Z,92377.00
2018-09-30T16:03:32.862Z,92375.33
2018-09-30T16:06:03.821Z,92376.90
2018-09-30T16:08:34.689Z,92376.21
2018-09-30T16:11:05.677Z,92380.72
2018-09-30T16:13:36.536Z,92379.37
2018-09-30T16:16:08.045Z,92380.30
2018-09-30T16:18:38.903Z,92376.56
2018-09-30T16:21:11.216Z,92376.19
2018-09-30T16:23:43.862Z,92382.55
2018-09-30T16:26:15.045Z,92386.95
2018-09-30T16:28:45.878Z,92385.48
2018-09-30T16:31:17.178Z,92383.28
2018-09-30T16:33:49.183Z,92382.51
2018-09-30T16:36:20.250Z,92387.30
2018-09-30T16:38:51.204Z,92386.11
2018-09-30T16:41:22.237Z,92393.25
2018-09-30T16:43:53.382Z,92395.50
2018-09-30T16:46:24.268Z,92397.30
2018-09-30T16:48:55.157Z,92400.78
2018-09-30T16:51:26.119Z,92400.55
2018-09-30T16:53:57.097Z,92397.08
2018-09-30T16:56:28.185Z,92404.17
2018-09-30T16:58:59.059Z,92403.69
2018-09-30T17:01:29.979Z,92402.05
2018-09-30T17:04:01.031Z,92398.34
2018-09-30T17:06:32.025Z,92405.10
2018-09-30T17:09:03.328Z,92400.05
2018-09-30T17:11:34.345Z,92404.39
2018-09-30T17:14:05.194Z,92404.84
2018-09-30T17:16:36.692Z,92399.02
2018-09-30T17:19:07.783Z,92398.72
2018-09-30T17:21:39.308Z,92398.11
2018-09-30T17:24:10.588Z,92402.41
2018-09-30T17:26:41.615Z,92395.59
2018-09-30T17:54:05.692Z,92409.35
2018-09-30T17:56:36.802Z,92407.63
2018-09-30T17:59:07.954Z,92404.06
2018-09-30T18:01:39.418Z,92409.69
2018-09-30T18:04:10.704Z,92410.51
2018-09-30T18:06:41.900Z,92411.27
2018-09-30T18:09:13.226Z,92409.55
2018-09-30T18:11:45.203Z,92409.84
2018-09-30T18:14:16.356Z,92406.87
2018-09-30T18:16:47.672Z,92404.49
2018-09-30T18:19:18.658Z,92409.55
2018-09-30T18:21:49.756Z,92410.07
2018-09-30T18:24:21.178Z,92405.73
2018-09-30T18:26:54.430Z,92402.47
2018-09-30T18:29:25.769Z,92404.61
2018-09-30T18:31:57.106Z,92400.64
2018-09-30T18:34:28.369Z,92398.42
2018-09-30T18:36:59.593Z,92399.38
2018-09-30T18:39:30.888Z,92397.94
2018-09-30T18:42:02.221Z,92397.04
2018-09-30T18:44:33.541Z,92388.58
2018-09-30T18:47:04.655Z,92391.33
2018-09-30T18:49:35.764Z,92391.16
2018-09-30T18:52:07.691Z,92397.68
2018-09-30T18:54:39.741Z,92394.25
2018-09-30T18:57:23.292Z,92393.84
2018-09-30T18:59:54.339Z,92391.97
2018-09-30T19:02:25.301Z,92390.21
2018-09-30T19:04:56.376Z,92389.20
2018-09-30T19:07:27.371Z,92381.91
2018-09-30T19:09:58.298Z,92378.95
2018-09-30T19:12:29.228Z,92375.44
2018-09-30T19:15:00.357Z,92380.86
2018-09-30T19:17:31.416Z,92381.11
2018-09-30T19:20:02.575Z,92379.77
2018-09-30T19:22:33.563Z,92371.32
2018-09-30T19:25:05.017Z,92376.64
2018-09-30T19:27:36.499Z,92376.03
2018-09-30T19:30:07.615Z,92373.73
2018-09-30T19:32:39.912Z,92373.66
2018-09-30T19:35:10.813Z,92372.06
2018-09-30T19:37:41.725Z,92372.35
2018-09-30T19:40:12.879Z,92369.89
2018-09-30T19:42:43.763Z,92368.55
2018-09-30T19:45:14.732Z,92362.23
2018-09-30T19:47:45.646Z,92368.88
2018-09-30T19:50:16.582Z,92360.70
2018-09-30T19:52:47.499Z,92353.73
2018-09-30T19:55:18.427Z,92363.89
2018-09-30T19:59:13.942Z,92358.41
2018-09-30T20:01:50.684Z,92352.11
2018-09-30T20:04:26.686Z,92347.77
2018-09-30T20:07:02.610Z,92341.44
2018-09-30T20:09:38.493Z,92345.30
2018-09-30T20:12:14.664Z,92344.03
2018-09-30T20:14:50.516Z,92343.32
2018-09-30T20:17:26.597Z,92340.32
2018-09-30T20:20:02.431Z,92335.86
2018-09-30T20:22:38.414Z,92334.52
2018-09-30T20:25:14.285Z,92330.83
2018-09-30T20:27:50.145Z,92331.66
2018-09-30T20:30:25.969Z,92327.33
2018-09-30T20:33:01.911Z,92320.59
2018-09-30T20:35:37.861Z,92320.06
2018-09-30T20:38:13.695Z,92311.17
2018-09-30T20:40:49.580Z,92310.72
2018-09-30T20:43:25.456Z,92318.53
2018-09-30T20:46:01.376Z,92312.32
2018-09-30T20:48:37.314Z,92312.16
2018-09-30T20:51:13.285Z,92305.15
2018-09-30T20:53:50.612Z,92303.65
2018-09-30T20:56:26.512Z,92302.46
2018-09-30T20:59:02.481Z,92303.80
2018-09-30T21:01:38.326Z,92304.58
2018-09-30T21:04:14.308Z,92307.80
2018-09-30T21:06:50.328Z,92303.98
2018-09-30T21:09:26.192Z,92292.33
2018-09-30T21:12:02.266Z,92294.28
2018-09-30T21:14:38.394Z,92289.72
2018-09-30T21:17:15.423Z,92280.86
2018-09-30T21:19:51.537Z,92284.81
2018-09-30T21:22:27.856Z,92284.19
2018-09-30T21:25:04.237Z,92277.53
2018-09-30T21:27:40.244Z,92275.06
2018-09-30T21:30:16.043Z,92272.37
2018-09-30T21:32:51.850Z,92269.98
2018-09-30T21:35:28.064Z,92272.48
2018-09-30T21:38:04.409Z,92267.14
2018-09-30T21:40:40.369Z,92266.47
2018-09-30T21:43:17.036Z,92263.85
2018-09-30T21:45:52.901Z,92263.14
2018-09-30T21:48:28.734Z,92255.70
2018-09-30T21:51:05.049Z,92254.58
2018-09-30T21:53:40.865Z,92251.73
2018-09-30T21:56:16.713Z,92253.91
2018-09-30T21:58:52.619Z,92248.52
2018-09-30T22:01:28.820Z,92247.58
2018-09-30T22:04:04.768Z,92247.32
2018-09-30T22:06:40.684Z,92240.63
2018-09-30T22:09:16.676Z,92233.48
2018-09-30T22:11:52.503Z,92231.35
2018-09-30T22:14:28.339Z,92228.26
2018-09-30T22:17:04.242Z,92233.20
2018-09-30T22:19:40.125Z,92227.44
2018-09-30T22:22:16.100Z,92230.12
2018-09-30T22:24:52.076Z,92229.31
2018-09-30T22:27:28.255Z,92228.00
2018-09-30T22:30:04.161Z,92222.55
2018-09-30T22:32:40.169Z,92220.17
2018-09-30T22:35:18.343Z,92222.67
2018-09-30T22:37:54.257Z,92218.16
2018-09-30T22:40:30.213Z,92219.91
2018-09-30T22:43:06.565Z,92214.44
2018-09-30T22:45:43.386Z,92208.36
2018-09-30T22:48:19.256Z,92218.91
2018-09-30T22:51:09.716Z,92212.03
2018-09-30T22:53:45.685Z,92210.36
2018-09-30T22:56:21.645Z,92204.27
2018-09-30T22:58:57.473Z,92203.53
2018-09-30T23:01:33.366Z,92199.22
2018-09-30T23:04:09.176Z,92196.19
2018-09-30T23:06:45.024Z,92195.31
2018-09-30T23:09:20.900Z,92191.93
2018-09-30T23:11:56.971Z,92191.19
2018-09-30T23:14:32.790Z,92190.44
2018-09-30T23:17:09.195Z,92186.55
2018-09-30T23:19:45.080Z,92183.13
2018-09-30T23:22:20.854Z,92180.44
2018-09-30T23:24:56.737Z,92173.80
2018-09-30T23:27:32.685Z,92172.95
2018-09-30T23:30:08.705Z,92170.81
2018-09-30T23:32:44.629Z,92171.34
2018-09-30T23:35:20.598Z,92166.67
2018-09-30T23:37:56.421Z,92160.20
2018-09-30T23:40:32.357Z,92161.06
2018-09-30T23:43:08.222Z,92157.55
2018-09-30T23:45:44.052Z,92156.91
2018-09-30T23:48:22.338Z,92157.58
2018-09-30T23:50:58.296Z,92157.20
2018-09-30T23:53:35.299Z,92150.70
2018-09-30T23:56:11.151Z,92149.89
2018-09-30T23:58:47.056Z,92141.89
